Time;durP1;ratioP1;P1;durP2;ratioP2;P2;SDS_P1;SDS_P2;PMS_P1;PMS_P2;Temp;Humidity;BMP_temperature;BMP_pressure;BME280_temperature;BME280_humidity;BME280_pressure;Samples;Min_cycle;Max_cycle;Signal;HPM_P1;HPM_P2
2022/08/02 00:02:21;;;;;;;;;;;;;;;;;;5052655;28;19928;-80
2022/08/02 00:04:46;;;;;;;;;;;;;;;;;;5053057;28;19917;-80
2022/08/02 00:07:11;;;;;;;;;;;;;;;;;;5036106;28;20447;-80
2022/08/02 00:09:37;;;;;;;;;;;;;;;;;;5053016;28;19959;-80
2022/08/02 00:12:02;;;;;;;;;;;;;;;;;;5052550;28;19919;-80
2022/08/02 00:14:27;;;;;;;;;;;;;;;;;;5036310;28;19916;-80
2022/08/02 00:16:53;;;;;;;;;;;;;;;;;;5052056;28;19970;-80
2022/08/02 00:19:18;;;;;;;;;;;;;;;;;;5035925;28;19963;-80
2022/08/02 00:21:43;;;;;;;;;;;;;;;;;;5035926;28;19919;-80
2022/08/02 00:24:09;;;;;;;;;;;;;;;;;;5036022;28;19948;-80
2022/08/02 00:26:34;;;;;;;;;;;;;;;;;;5052821;28;19916;-80
2022/08/02 00:28:59;;;;;;;;;;;;;;;;;;5052349;28;20388;-80
2022/08/02 00:31:24;;;;;;;;;;;;;;;;;;5052751;28;19945;-80
2022/08/02 00:33:50;;;;;;;;;;;;;;;;;;5052664;28;19921;-80
2022/08/02 00:36:15;;;;;;;;;;;;;;;;;;5035698;28;19967;-80
2022/08/02 00:38:40;;;;;;;;;;;;;;;;;;5035689;28;19995;-80
2022/08/02 00:41:10;;;;;;;;;;;;;;;;;;5035969;28;19920;-80
2022/08/02 00:43:35;;;;;;;;;;;;;;;;;;5035627;28;19938;-80
2022/08/02 00:46:01;;;;;;;;;;;;;;;;;;5035649;28;19917;-80
2022/08/02 00:48:26;;;;;;;;;;;;;;;;;;5035818;28;19935;-79
2022/08/02 00:50:51;;;;;;;;;;;;;;;;;;5052634;28;19913;-80
2022/08/02 00:53:16;;;;;;;;;;;;;;;;;;5052179;28;19917;-80
2022/08/02 00:55:42;;;;;;;;;;;;;;;;;;5052241;28;20382;-80
2022/08/02 00:58:07;;;;;;;;;;;;;;;;;;5053339;28;19916;-80
2022/08/02 01:00:32;;;;;;;;;;;;;;;;;;5053683;28;19917;-80
2022/08/02 01:02:58;;;;;;;;;;;;;;;;;;5035479;28;20295;-80
2022/08/02 01:05:23;;;;;;;;;;;;;;;;;;5053297;28;19960;-80
2022/08/02 01:07:48;;;;;;;;;;;;;;;;;;5052061;28;19917;-80
2022/08/02 01:10:13;;;;;;;;;;;;;;;;;;5035425;28;19913;-79
2022/08/02 01:12:39;;;;;;;;;;;;;;;;;;5052008;28;19921;-80
2022/08/02 01:15:07;;;;;;;;;;;;;;;;;;5035405;28;19917;-79
2022/08/02 01:17:35;;;;;;;;;;;;;;;;;;5053206;28;19975;-80
2022/08/02 01:20:00;;;;;;;;;;;;;;;;;;5052233;28;19913;-80
2022/08/02 01:22:28;;;;;;;;;;;;;;;;;;5053144;28;19919;-80
2022/08/02 01:24:59;;;;;;;;;;;;;;;;;;5053380;28;19928;-80
2022/08/02 01:27:48;;;;;;;;;;;;;;;;;;5051862;28;19912;-80
2022/08/02 01:30:13;;;;;;;;;;;;;;;;;;5036439;28;19952;-80
2022/08/02 01:32:42;;;;;;;;;;;;;;;;;;5038713;28;20023;-80
2022/08/02 01:35:12;;;;;;;;;;;;;;;;;;5038753;28;19912;-80
2022/08/02 01:37:40;;;;;;;;;;;;;;;;;;5055784;28;20355;-80
2022/08/02 01:40:07;;;;;;;;;;;;;;;;;;5057218;28;19919;-80
2022/08/02 01:42:32;;;;;;;;;;;;;;;;;;5055371;28;19913;-79
2022/08/02 01:44:58;;;;;;;;;;;;;;;;;;5055241;28;19974;-80
2022/08/02 01:47:25;;;;;;;;;;;;;;;;;;5055281;28;19913;-79
2022/08/02 01:49:51;;;;;;;;;;;;;;;;;;5056469;28;20359;-79
2022/08/02 01:52:22;;;;;;;;;;;;;;;;;;5055142;28;19939;-79
2022/08/02 01:55:07;;;;;;;;;;;;;;;;;;5055234;28;19996;-79
2022/08/02 01:57:34;;;;;;;;;;;;;;;;;;5055696;28;20366;-79
2022/08/02 01:59:59;;;;;;;;;;;;;;;;;;5055021;28;20337;-80
2022/08/02 02:02:25;;;;;;;;;;;;;;;;;;5054941;28;19916;-79
2022/08/02 02:04:50;;;;;;;;;;;;;;;;;;5056095;28;19971;-79
2022/08/02 02:07:15;;;;;;;;;;;;;;;;;;5054928;28;19916;-80
2022/08/02 02:09:41;;;;;;;;;;;;;;;;;;5054871;28;19936;-79
2022/08/02 02:12:06;;;;;;;;;;;;;;;;;;5054739;28;19920;-80
2022/08/02 02:14:32;;;;;;;;;;;;;;;;;;5054824;28;19931;-80
2022/08/02 02:16:57;;;;;;;;;;;;;;;;;;5054758;28;19913;-79
2022/08/02 02:19:22;;;;;;;;;;;;;;;;;;5055065;28;19917;-80
2022/08/02 02:21:48;;;;;;;;;;;;;;;;;;5038506;28;19912;-80
2022/08/02 02:24:13;;;;;;;;;;;;;;;;;;5038201;28;19964;-79
2022/08/02 02:26:38;;;;;;;;;;;;;;;;;;5037870;28;19940;-79
2022/08/02 02:29:04;;;;;;;;;;;;;;;;;;5055452;28;19925;-80
2022/08/02 02:31:33;;;;;;;;;;;;;;;;;;5037757;28;20007;-79
2022/08/02 02:34:04;;;;;;;;;;;;;;;;;;5054381;28;20398;-80
2022/08/02 02:36:29;;;;;;;;;;;;;;;;;;5054317;28;19913;-80
2022/08/02 02:38:55;;;;;;;;;;;;;;;;;;5054153;28;19917;-79
2022/08/02 02:41:20;;;;;;;;;;;;;;;;;;5053610;28;19917;-80
2022/08/02 02:43:45;;;;;;;;;;;;;;;;;;5037821;28;19923;-80
2022/08/02 02:46:10;;;;;;;;;;;;;;;;;;5037441;28;20331;-79
2022/08/02 02:48:36;;;;;;;;;;;;;;;;;;5054146;28;19959;-80
2022/08/02 02:51:02;;;;;;;;;;;;;;;;;;5054159;28;19921;-80
2022/08/02 02:53:27;;;;;;;;;;;;;;;;;;5037117;28;19917;-80
2022/08/02 02:55:53;;;;;;;;;;;;;;;;;;5037267;28;20031;-80
2022/08/02 02:58:18;;;;;;;;;;;;;;;;;;5037558;28;19916;-80
2022/08/02 03:03:47;;;;;;;;;;;;;;;;;;4993880;28;20365;-79
2022/08/02 03:06:12;;;;;;;;;;;;;;;;;;4993902;28;19925;-80
2022/08/02 03:08:38;;;;;;;;;;;;;;;;;;4977396;28;19925;-80
2022/08/02 03:11:03;;;;;;;;;;;;;;;;;;4993545;28;19924;-80
2022/08/02 03:13:28;;;;;;;;;;;;;;;;;;4977103;28;19945;-80
2022/08/02 03:15:53;;;;;;;;;;;;;;;;;;4993688;28;19925;-80
2022/08/02 03:18:38;;;;;;;;;;;;;;;;;;4993382;28;20058;-79
2022/08/02 03:21:05;;;;;;;;;;;;;;;;;;4993669;28;20072;-80
2022/08/02 03:23:30;;;;;;;;;;;;;;;;;;4993066;28;19914;-80
2022/08/02 03:25:55;;;;;;;;;;;;;;;;;;4993278;28;19917;-79
2022/08/02 03:28:21;;;;;;;;;;;;;;;;;;4993128;28;20042;-79
2022/08/02 03:30:46;;;;;;;;;;;;;;;;;;4992942;28;19922;-80
2022/08/02 03:33:11;;;;;;;;;;;;;;;;;;4993634;28;19926;-80
2022/08/02 03:35:37;;;;;;;;;;;;;;;;;;5032573;28;19918;-80
2022/08/02 03:38:02;;;;;;;;;;;;;;;;;;5016738;28;19952;-80
2022/08/02 03:40:28;;;;;;;;;;;;;;;;;;5016727;28;19913;-80
2022/08/02 03:42:53;;;;;;;;;;;;;;;;;;5034871;28;19917;-80
2022/08/02 03:45:18;;;;;;;;;;;;;;;;;;5034555;28;19917;-80
2022/08/02 03:47:43;;;;;;;;;;;;;;;;;;5033248;28;19917;-80
2022/08/02 03:50:12;;;;;;;;;;;;;;;;;;5033309;28;19917;-80
2022/08/02 03:52:37;;;;;;;;;;;;;;;;;;5033229;28;19960;-80
2022/08/02 03:55:03;;;;;;;;;;;;;;;;;;5016871;28;20313;-80
2022/08/02 03:57:28;;;;;;;;;;;;;;;;;;5032820;28;19921;-80
2022/08/02 03:59:53;;;;;;;;;;;;;;;;;;5032784;28;19924;-80
2022/08/02 04:02:19;;;;;;;;;;;;;;;;;;5032756;28;20287;-80
2022/08/02 04:04:44;;;;;;;;;;;;;;;;;;5016149;28;19920;-80
2022/08/02 04:07:09;;;;;;;;;;;;;;;;;;5033158;28;20390;-80
2022/08/02 04:09:34;;;;;;;;;;;;;;;;;;5032728;28;19941;-80
2022/08/02 04:12:00;;;;;;;;;;;;;;;;;;5016150;28;20388;-80
2022/08/02 04:14:25;;;;;;;;;;;;;;;;;;5032683;28;19917;-80
2022/08/02 04:16:56;;;;;;;;;;;;;;;;;;5033028;28;20375;-80
2022/08/02 04:19:25;;;;;;;;;;;;;;;;;;5032723;28;19947;-80
2022/08/02 04:21:50;;;;;;;;;;;;;;;;;;5032685;28;19955;-80
2022/08/02 04:24:16;;;;;;;;;;;;;;;;;;5032500;28;19960;-80
2022/08/02 04:26:42;;;;;;;;;;;;;;;;;;5033777;28;19932;-80
2022/08/02 04:29:08;;;;;;;;;;;;;;;;;;5035283;28;19913;-80
2022/08/02 04:31:33;;;;;;;;;;;;;;;;;;5052561;28;19924;-80
2022/08/02 04:33:58;;;;;;;;;;;;;;;;;;5053513;28;19921;-80
2022/08/02 04:36:23;;;;;;;;;;;;;;;;;;5036015;28;19924;-80
2022/08/02 04:38:49;;;;;;;;;;;;;;;;;;5054164;28;20015;-80
2022/08/02 04:41:14;;;;;;;;;;;;;;;;;;5035723;28;19916;-80
2022/08/02 04:43:39;;;;;;;;;;;;;;;;;;5035763;28;19957;-81
2022/08/02 04:46:05;;;;;;;;;;;;;;;;;;5052373;28;19913;-80
2022/08/02 04:48:30;;;;;;;;;;;;;;;;;;5053446;28;20011;-80
2022/08/02 04:50:55;;;;;;;;;;;;;;;;;;5052225;28;20371;-80
2022/08/02 04:53:20;;;;;;;;;;;;;;;;;;5052176;28;19925;-80
2022/08/02 04:55:46;;;;;;;;;;;;;;;;;;5052358;28;20379;-79
2022/08/02 04:58:11;;;;;;;;;;;;;;;;;;5052241;28;19921;-79
2022/08/02 05:00:37;;;;;;;;;;;;;;;;;;5052523;28;20375;-79
2022/08/02 05:03:02;;;;;;;;;;;;;;;;;;5053069;28;19951;-79
2022/08/02 05:05:27;;;;;;;;;;;;;;;;;;5056048;28;19917;-80
2022/08/02 05:07:52;;;;;;;;;;;;;;;;;;5057355;28;19936;-80
2022/08/02 05:10:18;;;;;;;;;;;;;;;;;;5039557;28;20387;-80
2022/08/02 05:12:43;;;;;;;;;;;;;;;;;;5055910;28;19924;-80
2022/08/02 05:15:10;;;;;;;;;;;;;;;;;;5055964;28;19919;-80
2022/08/02 05:17:35;;;;;;;;;;;;;;;;;;5056180;28;19913;-80
2022/08/02 05:20:00;;;;;;;;;;;;;;;;;;5057404;28;20393;-80
2022/08/02 05:22:26;;;;;;;;;;;;;;;;;;5055745;28;19959;-80
2022/08/02 05:24:51;;;;;;;;;;;;;;;;;;5057241;28;20271;-80
2022/08/02 05:27:16;;;;;;;;;;;;;;;;;;5057392;28;19913;-80
2022/08/02 05:29:41;;;;;;;;;;;;;;;;;;5055296;28;19921;-80
2022/08/02 05:32:07;;;;;;;;;;;;;;;;;;5056987;28;20417;-80
2022/08/02 05:34:32;;;;;;;;;;;;;;;;;;5056578;28;19921;-80
2022/08/02 05:36:57;;;;;;;;;;;;;;;;;;5056966;28;19943;-80
2022/08/02 05:39:22;;;;;;;;;;;;;;;;;;5056916;28;19924;-80
2022/08/02 05:41:48;;;;;;;;;;;;;;;;;;5055400;28;19923;-80
2022/08/02 05:44:13;;;;;;;;;;;;;;;;;;5055599;28;19959;-80
2022/08/02 05:46:38;;;;;;;;;;;;;;;;;;5056938;28;19917;-80
2022/08/02 05:49:04;;;;;;;;;;;;;;;;;;5055542;28;19917;-81
2022/08/02 05:51:36;;;;;;;;;;;;;;;;;;5038616;28;19913;-82
2022/08/02 05:54:06;;;;;;;;;;;;;;;;;;5038963;28;19936;-79
2022/08/02 05:56:33;;;;;;;;;;;;;;;;;;5055440;28;20404;-80
2022/08/02 05:59:10;;;;;;;;;;;;;;;;;;5038392;28;19920;-81
2022/08/02 06:01:40;;;;;;;;;;;;;;;;;;5055578;28;20447;-80
2022/08/02 06:04:07;;;;;;;;;;;;;;;;;;5055078;28;19962;-80
2022/08/02 06:06:32;;;;;;;;;;;;;;;;;;5054967;28;19916;-80
2022/08/02 06:08:59;;;;;;;;;;;;;;;;;;5056410;28;19970;-80
2022/08/02 06:11:28;;;;;;;;;;;;;;;;;;5038058;28;20287;-80
2022/08/02 06:13:54;;;;;;;;;;;;;;;;;;5054305;28;19913;-80
2022/08/02 06:16:19;;;;;;;;;;;;;;;;;;5038580;28;19924;-80
2022/08/02 06:18:44;;;;;;;;;;;;;;;;;;5038059;28;19913;-80
2022/08/02 06:21:09;;;;;;;;;;;;;;;;;;5056162;28;19998;-80
2022/08/02 06:23:39;;;;;;;;;;;;;;;;;;5054547;28;19917;-79
2022/08/02 06:26:04;;;;;;;;;;;;;;;;;;5054850;28;19917;-80
2022/08/02 06:28:30;;;;;;;;;;;;;;;;;;5037843;28;20398;-80
2022/08/02 06:30:55;;;;;;;;;;;;;;;;;;5054280;28;19931;-80
2022/08/02 06:33:20;;;;;;;;;;;;;;;;;;5055886;28;19921;-80
2022/08/02 06:35:51;;;;;;;;;;;;;;;;;;5037717;28;19913;-80
2022/08/02 06:38:18;;;;;;;;;;;;;;;;;;5037663;28;19917;-80
2022/08/02 06:41:00;;;;;;;;;;;;;;;;;;5054314;28;19996;-80
2022/08/02 06:43:29;;;;;;;;;;;;;;;;;;5038473;28;19995;-80
2022/08/02 06:45:54;;;;;;;;;;;;;;;;;;5055678;28;20363;-80
2022/08/02 06:48:19;;;;;;;;;;;;;;;;;;5054197;28;19944;-80
2022/08/02 06:50:44;;;;;;;;;;;;;;;;;;5054246;28;19921;-79
2022/08/02 06:53:10;;;;;;;;;;;;;;;;;;5053913;28;19921;-79
2022/08/02 06:55:35;;;;;;;;;;;;;;;;;;5037497;28;19920;-79
2022/08/02 06:58:02;;;;;;;;;;;;;;;;;;5055099;28;19959;-80
2022/08/02 07:00:27;;;;;;;;;;;;;;;;;;5037515;28;20019;-79
2022/08/02 07:02:52;;;;;;;;;;;;;;;;;;5054212;28;19982;-80
2022/08/02 07:05:18;;;;;;;;;;;;;;;;;;5037214;28;19917;-79
2022/08/02 07:07:43;;;;;;;;;;;;;;;;;;5053771;28;19913;-79
2022/08/02 07:10:08;;;;;;;;;;;;;;;;;;5053756;28;19941;-80
2022/08/02 07:12:34;;;;;;;;;;;;;;;;;;5054731;28;19921;-80
2022/08/02 07:14:59;;;;;;;;;;;;;;;;;;5036996;28;19920;-79
2022/08/02 07:17:25;;;;;;;;;;;;;;;;;;5053904;28;19913;-79
2022/08/02 07:19:50;;;;;;;;;;;;;;;;;;5036890;28;19913;-80
2022/08/02 07:22:18;;;;;;;;;;;;;;;;;;5054912;28;19956;-79
2022/08/02 07:24:43;;;;;;;;;;;;;;;;;;5053430;28;19967;-79
2022/08/02 07:27:08;;;;;;;;;;;;;;;;;;5036365;28;19948;-79
2022/08/02 07:29:34;;;;;;;;;;;;;;;;;;5054366;28;19928;-80
2022/08/02 07:31:59;;;;;;;;;;;;;;;;;;5053257;28;20382;-80
2022/08/02 07:34:24;;;;;;;;;;;;;;;;;;5036441;28;19920;-80
2022/08/02 07:36:50;;;;;;;;;;;;;;;;;;5053251;28;20367;-80
2022/08/02 07:39:15;;;;;;;;;;;;;;;;;;5036532;28;20015;-80
2022/08/02 07:41:40;;;;;;;;;;;;;;;;;;5036550;28;19943;-80
2022/08/02 07:44:06;;;;;;;;;;;;;;;;;;5053034;28;20401;-80
2022/08/02 07:46:32;;;;;;;;;;;;;;;;;;5053061;28;19963;-80
2022/08/02 07:48:57;;;;;;;;;;;;;;;;;;5053312;28;19935;-80
2022/08/02 07:51:22;;;;;;;;;;;;;;;;;;5037196;28;20360;-80
2022/08/02 07:53:48;;;;;;;;;;;;;;;;;;5036172;28;19921;-80
2022/08/02 07:56:13;;;;;;;;;;;;;;;;;;5053475;28;19920;-80
2022/08/02 07:58:40;;;;;;;;;;;;;;;;;;5054011;28;19916;-80
2022/08/02 08:01:05;;;;;;;;;;;;;;;;;;5036179;28;20287;-80
2022/08/02 08:03:30;;;;;;;;;;;;;;;;;;5053449;28;19917;-79
2022/08/02 08:05:55;;;;;;;;;;;;;;;;;;5053960;28;19917;-80
2022/08/02 08:08:21;;;;;;;;;;;;;;;;;;5053925;28;19928;-80
2022/08/02 08:10:46;;;;;;;;;;;;;;;;;;5054280;28;19924;-80
2022/08/02 08:13:11;;;;;;;;;;;;;;;;;;5053747;28;19925;-80
2022/08/02 08:15:36;;;;;;;;;;;;;;;;;;5053796;28;19917;-80
2022/08/02 08:18:02;;;;;;;;;;;;;;;;;;5053531;28;19923;-80
2022/08/02 08:20:27;;;;;;;;;;;;;;;;;;5054009;28;19988;-79
2022/08/02 08:22:52;;;;;;;;;;;;;;;;;;5053745;28;19917;-79
2022/08/02 08:25:18;;;;;;;;;;;;;;;;;;5052456;28;19920;-80
2022/08/02 08:27:50;;;;;;;;;;;;;;;;;;5053992;28;19927;-80
2022/08/02 08:30:16;;;;;;;;;;;;;;;;;;5035893;28;19921;-79
2022/08/02 08:32:41;;;;;;;;;;;;;;;;;;5052549;28;19978;-79
2022/08/02 08:35:07;;;;;;;;;;;;;;;;;;5052274;28;19917;-79
2022/08/02 08:37:33;;;;;;;;;;;;;;;;;;5052696;28;19999;-79
2022/08/02 08:39:58;;;;;;;;;;;;;;;;;;5056552;28;19920;-79
2022/08/02 08:42:27;;;;;;;;;;;;;;;;;;5056772;28;19916;-80
2022/08/02 08:44:56;;;;;;;;;;;;;;;;;;5057082;28;19912;-79
2022/08/02 08:47:21;;;;;;;;;;;;;;;;;;5056570;28;19913;-80
2022/08/02 08:49:47;;;;;;;;;;;;;;;;;;5056439;28;19920;-79
2022/08/02 08:52:12;;;;;;;;;;;;;;;;;;5056413;28;20402;-80
2022/08/02 08:54:37;;;;;;;;;;;;;;;;;;5039401;28;20421;-80
2022/08/02 08:57:06;;;;;;;;;;;;;;;;;;5056574;28;19916;-80
2022/08/02 08:59:31;;;;;;;;;;;;;;;;;;5057571;28;19917;-79
2022/08/02 09:01:56;;;;;;;;;;;;;;;;;;5039458;28;19913;-79
2022/08/02 09:04:22;;;;;;;;;;;;;;;;;;5056167;28;19913;-80
2022/08/02 09:06:47;;;;;;;;;;;;;;;;;;5057603;28;19924;-77
2022/08/02 09:09:12;;;;;;;;;;;;;;;;;;5056064;28;19936;-79
2022/08/02 09:11:38;;;;;;;;;;;;;;;;;;5055919;28;19912;-79
2022/08/02 09:14:03;;;;;;;;;;;;;;;;;;5039166;28;19974;-80
2022/08/02 09:16:35;;;;;;;;;;;;;;;;;;5039237;28;19920;-79
2022/08/02 09:19:15;;;;;;;;;;;;;;;;;;5056184;28;19913;-79
2022/08/02 09:21:40;;;;;;;;;;;;;;;;;;5039153;28;20386;-80
2022/08/02 09:24:14;;;;;;;;;;;;;;;;;;5056937;28;19921;-80
2022/08/02 09:26:39;;;;;;;;;;;;;;;;;;5056354;28;19919;-80
2022/08/02 09:29:04;;;;;;;;;;;;;;;;;;5055615;28;19917;-80
2022/08/02 09:31:30;;;;;;;;;;;;;;;;;;5055768;28;20062;-80
2022/08/02 09:33:56;;;;;;;;;;;;;;;;;;5038951;28;19921;-80
2022/08/02 09:36:22;;;;;;;;;;;;;;;;;;5056706;28;19917;-79
2022/08/02 09:38:57;;;;;;;;;;;;;;;;;;5038863;28;19913;-79
2022/08/02 09:41:26;;;;;;;;;;;;;;;;;;5055508;28;19920;-80
2022/08/02 09:43:52;;;;;;;;;;;;;;;;;;5055729;28;20318;-79
2022/08/02 09:46:23;;;;;;;;;;;;;;;;;;5055597;28;19962;-80
2022/08/02 09:48:50;;;;;;;;;;;;;;;;;;5055545;28;20256;-80
2022/08/02 09:51:34;;;;;;;;;;;;;;;;;;5056745;28;19917;-80
2022/08/02 09:54:01;;;;;;;;;;;;;;;;;;5055352;28;19933;-79
2022/08/02 09:56:27;;;;;;;;;;;;;;;;;;5055301;28;19942;-79
2022/08/02 09:58:54;;;;;;;;;;;;;;;;;;5055355;28;19924;-80
2022/08/02 10:01:39;;;;;;;;;;;;;;;;;;5055402;28;19912;-79
2022/08/02 10:04:10;;;;;;;;;;;;;;;;;;5056083;28;19913;-80
2022/08/02 10:06:35;;;;;;;;;;;;;;;;;;5056383;28;19917;-79
2022/08/02 10:09:00;;;;;;;;;;;;;;;;;;5038192;28;19920;-80
2022/08/02 10:11:26;;;;;;;;;;;;;;;;;;5054710;28;20337;-79
2022/08/02 10:13:52;;;;;;;;;;;;;;;;;;5054710;28;19967;-80
2022/08/02 10:16:20;;;;;;;;;;;;;;;;;;5056241;28;20290;-80
2022/08/02 10:18:46;;;;;;;;;;;;;;;;;;5054776;28;19916;-80
2022/08/02 10:21:12;;;;;;;;;;;;;;;;;;5054687;28;19947;-80
2022/08/02 10:23:38;;;;;;;;;;;;;;;;;;5054674;28;20430;-80
2022/08/02 10:26:03;;;;;;;;;;;;;;;;;;5054932;28;19996;-80
2022/08/02 10:28:31;;;;;;;;;;;;;;;;;;5054452;28;20371;-79
2022/08/02 10:30:58;;;;;;;;;;;;;;;;;;5054220;28;20020;-79
2022/08/02 10:33:25;;;;;;;;;;;;;;;;;;5037646;28;19924;-79
2022/08/02 10:35:51;;;;;;;;;;;;;;;;;;5054477;28;19913;-79
2022/08/02 10:38:16;;;;;;;;;;;;;;;;;;5037609;28;19912;-79
2022/08/02 10:40:52;;;;;;;;;;;;;;;;;;5054877;28;19921;-79
2022/08/02 10:43:35;;;;;;;;;;;;;;;;;;5054323;28;19955;-80
2022/08/02 10:46:19;;;;;;;;;;;;;;;;;;5055634;28;20015;-80
2022/08/02 10:49:00;;;;;;;;;;;;;;;;;;5053958;28;20326;-79
2022/08/02 10:51:44;;;;;;;;;;;;;;;;;;5054435;28;20359;-79
2022/08/02 10:54:10;;;;;;;;;;;;;;;;;;5053844;28;19924;-79
2022/08/02 10:56:44;;;;;;;;;;;;;;;;;;5055457;28;19923;-79
2022/08/02 10:59:25;;;;;;;;;;;;;;;;;;5053967;28;19912;-79
2022/08/02 11:01:50;;;;;;;;;;;;;;;;;;5036697;28;19913;-80
2022/08/02 11:04:16;;;;;;;;;;;;;;;;;;5053922;28;19920;-79
2022/08/02 11:07:00;;;;;;;;;;;;;;;;;;5055325;28;20368;-79
2022/08/02 11:09:31;;;;;;;;;;;;;;;;;;5053634;28;20318;-79
2022/08/02 11:12:09;;;;;;;;;;;;;;;;;;5037121;28;20004;-79
2022/08/02 11:14:36;;;;;;;;;;;;;;;;;;5053561;28;20421;-79
2022/08/02 11:17:05;;;;;;;;;;;;;;;;;;5053988;28;19919;-79
2022/08/02 11:19:31;;;;;;;;;;;;;;;;;;5053650;28;19912;-79
2022/08/02 11:22:00;;;;;;;;;;;;;;;;;;5053543;28;19944;-79
2022/08/02 11:24:32;;;;;;;;;;;;;;;;;;5037056;28;19920;-79
2022/08/02 11:26:59;;;;;;;;;;;;;;;;;;5053747;28;19913;-79
2022/08/02 11:29:31;;;;;;;;;;;;;;;;;;5036489;28;19921;-80
2022/08/02 11:31:56;;;;;;;;;;;;;;;;;;5036481;28;20059;-80
2022/08/02 11:34:23;;;;;;;;;;;;;;;;;;5053006;28;20027;-80
2022/08/02 11:36:49;;;;;;;;;;;;;;;;;;5053456;28;19936;-80
2022/08/02 11:39:15;;;;;;;;;;;;;;;;;;5036619;28;19913;-80
2022/08/02 11:41:41;;;;;;;;;;;;;;;;;;5036468;28;19920;-80
2022/08/02 11:44:06;;;;;;;;;;;;;;;;;;5054274;28;19913;-80
2022/08/02 11:46:32;;;;;;;;;;;;;;;;;;5053219;28;19948;-80
2022/08/02 11:48:57;;;;;;;;;;;;;;;;;;5036312;28;19913;-80
2022/08/02 11:51:22;;;;;;;;;;;;;;;;;;5053198;28;20007;-80
2022/08/02 11:53:49;;;;;;;;;;;;;;;;;;5052874;28;19978;-80
2022/08/02 11:56:15;;;;;;;;;;;;;;;;;;5052902;28;19913;-80
2022/08/02 11:58:40;;;;;;;;;;;;;;;;;;5052944;28;20334;-80
2022/08/02 12:01:06;;;;;;;;;;;;;;;;;;5054301;28;19913;-80
2022/08/02 12:03:35;;;;;;;;;;;;;;;;;;5036186;28;19963;-80
2022/08/02 12:06:00;;;;;;;;;;;;;;;;;;5053122;28;20008;-80
2022/08/02 12:08:25;;;;;;;;;;;;;;;;;;5052869;28;19960;-80
2022/08/02 12:10:50;;;;;;;;;;;;;;;;;;5053883;28;19917;-80
2022/08/02 12:13:16;;;;;;;;;;;;;;;;;;5052891;28;19921;-80
2022/08/02 12:15:44;;;;;;;;;;;;;;;;;;5036024;28;19924;-80
2022/08/02 12:21:22;;;;;;;;;;;;;;;;;;5053800;28;19974;-80
2022/08/02 12:23:47;;;;;;;;;;;;;;;;;;5052580;28;19927;-80
2022/08/02 12:26:12;;;;;;;;;;;;;;;;;;5054074;28;19917;-80
2022/08/02 12:28:38;;;;;;;;;;;;;;;;;;5035928;28;19959;-80
2022/08/02 12:31:04;;;;;;;;;;;;;;;;;;5052266;28;20375;-80
2022/08/02 12:33:43;;;;;;;;;;;;;;;;;;5035859;28;19953;-80
2022/08/02 12:36:15;;;;;;;;;;;;;;;;;;5052480;28;20011;-80
2022/08/02 12:38:53;;;;;;;;;;;;;;;;;;5035812;28;19913;-80
2022/08/02 12:41:19;;;;;;;;;;;;;;;;;;5052468;28;19913;-80
2022/08/02 12:43:44;;;;;;;;;;;;;;;;;;5053600;28;19913;-80
2022/08/02 12:46:16;;;;;;;;;;;;;;;;;;5052405;28;20054;-79
2022/08/02 12:48:41;;;;;;;;;;;;;;;;;;5035742;28;20079;-79
2022/08/02 12:51:22;;;;;;;;;;;;;;;;;;5035926;28;19920;-80
2022/08/02 12:53:47;;;;;;;;;;;;;;;;;;5053620;28;19971;-80
2022/08/02 12:56:25;;;;;;;;;;;;;;;;;;5052619;28;19917;-80
2022/08/02 12:58:50;;;;;;;;;;;;;;;;;;5035915;28;20279;-80
2022/08/02 13:01:22;;;;;;;;;;;;;;;;;;5052235;28;19912;-80
2022/08/02 13:03:47;;;;;;;;;;;;;;;;;;5052531;28;20261;-80
2022/08/02 13:06:13;;;;;;;;;;;;;;;;;;5052218;28;19920;-80
2022/08/02 13:08:38;;;;;;;;;;;;;;;;;;5035550;28;19955;-80
2022/08/02 13:11:03;;;;;;;;;;;;;;;;;;5035383;28;20432;-80
2022/08/02 13:13:29;;;;;;;;;;;;;;;;;;5051922;28;19928;-80
2022/08/02 13:15:54;;;;;;;;;;;;;;;;;;5053299;28;19917;-80
2022/08/02 13:18:19;;;;;;;;;;;;;;;;;;5035717;28;20481;-80
2022/08/02 13:20:44;;;;;;;;;;;;;;;;;;5053252;28;19920;-80
2022/08/02 13:23:10;;;;;;;;;;;;;;;;;;5051984;28;20260;-80
2022/08/02 13:25:35;;;;;;;;;;;;;;;;;;5055495;28;19928;-80
2022/08/02 13:28:00;;;;;;;;;;;;;;;;;;5055802;28;19924;-80
2022/08/02 13:30:25;;;;;;;;;;;;;;;;;;5055683;28;19932;-80
2022/08/02 13:32:51;;;;;;;;;;;;;;;;;;5056753;28;20327;-79
2022/08/02 13:35:16;;;;;;;;;;;;;;;;;;5055602;28;19917;-80
2022/08/02 13:37:41;;;;;;;;;;;;;;;;;;5038823;28;19924;-80
2022/08/02 13:40:07;;;;;;;;;;;;;;;;;;5038813;28;19919;-80
2022/08/02 13:42:32;;;;;;;;;;;;;;;;;;5056580;28;19970;-80
2022/08/02 13:44:57;;;;;;;;;;;;;;;;;;5056902;28;19967;-79
2022/08/02 13:47:23;;;;;;;;;;;;;;;;;;5038594;28;20378;-80
2022/08/02 13:49:49;;;;;;;;;;;;;;;;;;5057046;28;19967;-80
2022/08/02 13:52:15;;;;;;;;;;;;;;;;;;5038817;28;19919;-79
2022/08/02 13:54:40;;;;;;;;;;;;;;;;;;5038506;28;20420;-80
2022/08/02 13:57:05;;;;;;;;;;;;;;;;;;5056347;28;19917;-80
2022/08/02 13:59:31;;;;;;;;;;;;;;;;;;5056303;28;19999;-80
2022/08/02 14:01:57;;;;;;;;;;;;;;;;;;5055705;28;20050;-79
2022/08/02 14:04:23;;;;;;;;;;;;;;;;;;5038529;28;19917;-79
2022/08/02 14:06:48;;;;;;;;;;;;;;;;;;5055086;28;19924;-79
2022/08/02 14:09:13;;;;;;;;;;;;;;;;;;5055052;28;19917;-79
2022/08/02 14:11:38;;;;;;;;;;;;;;;;;;5038146;28;19917;-79
2022/08/02 14:14:04;;;;;;;;;;;;;;;;;;5054697;28;20337;-79
2022/08/02 14:16:29;;;;;;;;;;;;;;;;;;5038156;28;20290;-79
2022/08/02 14:18:56;;;;;;;;;;;;;;;;;;5056002;28;19917;-79
2022/08/02 14:21:21;;;;;;;;;;;;;;;;;;5055964;28;19917;-79
2022/08/02 14:23:46;;;;;;;;;;;;;;;;;;5037956;28;20377;-79
2022/08/02 14:26:11;;;;;;;;;;;;;;;;;;5055166;28;19921;-79
2022/08/02 14:28:37;;;;;;;;;;;;;;;;;;5056015;28;19959;-79
2022/08/02 14:31:02;;;;;;;;;;;;;;;;;;5055572;28;19932;-79
2022/08/02 14:33:27;;;;;;;;;;;;;;;;;;5054500;28;19916;-80
2022/08/02 14:35:53;;;;;;;;;;;;;;;;;;5036733;28;20367;-80
2022/08/02 14:38:18;;;;;;;;;;;;;;;;;;5037735;28;19913;-80
2022/08/02 14:40:46;;;;;;;;;;;;;;;;;;5054354;28;19912;-80
2022/08/02 14:44:02;;;;;;;;;;;;;;;;;;5054618;28;20088;-80
2022/08/02 14:45:57;;;;;;;;;;;;;;;;;;5055363;28;19966;-80
2022/08/02 14:48:22;;;;;;;;;;;;;;;;;;5054088;28;19916;-80
2022/08/02 14:50:47;;;;;;;;;;;;;;;;;;5055362;28;19923;-80
2022/08/02 14:53:12;;;;;;;;;;;;;;;;;;5037379;28;20440;-80
2022/08/02 14:55:38;;;;;;;;;;;;;;;;;;5054229;28;19921;-80
2022/08/02 14:58:03;;;;;;;;;;;;;;;;;;5037365;28;19923;-80
2022/08/02 15:00:28;;;;;;;;;;;;;;;;;;5053922;28;19947;-79
2022/08/02 15:02:54;;;;;;;;;;;;;;;;;;5055353;28;19924;-80
2022/08/02 15:05:19;;;;;;;;;;;;;;;;;;5037198;28;19913;-80
2022/08/02 15:07:44;;;;;;;;;;;;;;;;;;5054197;28;20047;-80
2022/08/02 15:10:09;;;;;;;;;;;;;;;;;;5037081;28;19917;-80
2022/08/02 15:12:34;;;;;;;;;;;;;;;;;;5037214;28;20276;-80
2022/08/02 15:15:00;;;;;;;;;;;;;;;;;;5054023;28;19962;-80
2022/08/02 15:17:25;;;;;;;;;;;;;;;;;;5036989;28;19917;-80
2022/08/02 15:19:50;;;;;;;;;;;;;;;;;;5036933;28;19917;-80
2022/08/02 15:22:16;;;;;;;;;;;;;;;;;;5053444;28;20395;-80
2022/08/02 15:24:41;;;;;;;;;;;;;;;;;;5053520;28;19931;-80
2022/08/02 15:27:11;;;;;;;;;;;;;;;;;;5036733;28;19963;-80
2022/08/02 15:29:37;;;;;;;;;;;;;;;;;;5054481;28;19932;-80
2022/08/02 15:32:02;;;;;;;;;;;;;;;;;;5053662;28;19913;-80
2022/08/02 15:34:27;;;;;;;;;;;;;;;;;;5053255;28;20427;-80
2022/08/02 15:36:52;;;;;;;;;;;;;;;;;;5054433;28;20371;-79
2022/08/02 15:39:18;;;;;;;;;;;;;;;;;;5053481;28;19917;-80
2022/08/02 15:41:43;;;;;;;;;;;;;;;;;;5053509;28;19955;-79
2022/08/02 15:44:08;;;;;;;;;;;;;;;;;;5053448;28;19917;-79
2022/08/02 15:46:34;;;;;;;;;;;;;;;;;;5036274;28;20046;-79
2022/08/02 15:49:00;;;;;;;;;;;;;;;;;;5036478;28;19982;-79
2022/08/02 15:51:25;;;;;;;;;;;;;;;;;;5053170;28;19923;-79
2022/08/02 15:53:50;;;;;;;;;;;;;;;;;;5053292;28;19924;-79
2022/08/02 15:56:15;;;;;;;;;;;;;;;;;;5054487;28;20359;-79
2022/08/02 15:58:41;;;;;;;;;;;;;;;;;;5052825;28;19916;-79
2022/08/02 16:01:06;;;;;;;;;;;;;;;;;;5054014;28;19920;-79
2022/08/02 16:03:31;;;;;;;;;;;;;;;;;;5053432;28;20019;-79
2022/08/02 16:05:57;;;;;;;;;;;;;;;;;;5053933;28;19978;-79
2022/08/02 16:08:22;;;;;;;;;;;;;;;;;;5054188;28;19951;-79
2022/08/02 16:10:47;;;;;;;;;;;;;;;;;;5036006;28;19919;-79
2022/08/02 16:15:57;;;;;;;;;;;;;;;;;;5053153;28;19967;-79
2022/08/02 16:18:22;;;;;;;;;;;;;;;;;;5054101;28;19921;-79
2022/08/02 16:20:47;;;;;;;;;;;;;;;;;;5035874;28;20011;-79
2022/08/02 16:23:13;;;;;;;;;;;;;;;;;;5035829;28;19924;-79
2022/08/02 16:25:38;;;;;;;;;;;;;;;;;;5054222;28;19928;-79
2022/08/02 16:28:04;;;;;;;;;;;;;;;;;;5035877;28;19935;-79
2022/08/02 16:30:29;;;;;;;;;;;;;;;;;;5035532;28;19925;-79
2022/08/02 16:32:54;;;;;;;;;;;;;;;;;;5053635;28;19952;-79
2022/08/02 16:35:21;;;;;;;;;;;;;;;;;;5053248;28;20417;-79
2022/08/02 16:37:46;;;;;;;;;;;;;;;;;;5052687;28;19921;-79
2022/08/02 16:40:12;;;;;;;;;;;;;;;;;;5035776;28;20410;-79
2022/08/02 16:42:37;;;;;;;;;;;;;;;;;;5035737;28;19952;-79
2022/08/02 16:45:02;;;;;;;;;;;;;;;;;;5052281;28;19917;-79
2022/08/02 16:47:28;;;;;;;;;;;;;;;;;;5035979;28;19923;-79
2022/08/02 16:49:53;;;;;;;;;;;;;;;;;;5035600;28;19917;-79
2022/08/02 16:52:18;;;;;;;;;;;;;;;;;;5035636;28;20355;-79